Time;durP1;ratioP1;P1;durP2;ratioP2;P2;SDS_P1;SDS_P2;PMS_P1;PMS_P2;Temp;Humidity;BMP_temperature;BMP_pressure;BME280_temperature;BME280_humidity;BME280_pressure;Samples;Min_cycle;Max_cycle;Signal;HPM_P1;HPM_P2
2021/10/09 00:01:56;;;;;;;39.40;29.50;;;11.50;99.90;;;;;;4977712;28;20154;-78
2021/10/09 00:04:24;;;;;;;40.85;29.40;;;11.50;99.90;;;;;;4977044;28;20499;-77
2021/10/09 00:06:51;;;;;;;39.78;31.17;;;11.40;99.90;;;;;;4976857;28;20054;-77
2021/10/09 00:09:18;;;;;;;40.30;29.40;;;11.40;99.90;;;;;;4976759;28;20042;-77
2021/10/09 00:11:45;;;;;;;41.80;30.10;;;11.40;99.90;;;;;;4976474;28;20050;-77
2021/10/09 00:14:13;;;;;;;40.58;30.25;;;11.30;99.90;;;;;;4976821;28;20134;-77
2021/10/09 00:16:43;;;;;;;41.72;30.13;;;11.30;99.90;;;;;;4976762;28;20138;-77
2021/10/09 00:19:12;;;;;;;39.80;29.77;;;11.20;99.90;;;;;;4977081;28;20069;-77
2021/10/09 00:21:43;;;;;;;43.90;31.15;;;11.20;99.90;;;;;;4976928;28;20629;-78
2021/10/09 00:24:10;;;;;;;49.42;30.05;;;11.10;99.90;;;;;;4976576;28;20110;-77
2021/10/09 00:26:37;;;;;;;39.63;29.52;;;11.10;99.90;;;;;;4976601;28;20054;-77
2021/10/09 00:29:04;;;;;;;42.15;30.08;;;11.00;99.90;;;;;;4976444;28;20050;-76
2021/10/09 00:31:31;;;;;;;43.88;31.23;;;11.00;99.90;;;;;;4976704;28;20050;-77
2021/10/09 00:33:59;;;;;;;41.42;30.33;;;11.00;99.90;;;;;;4975894;28;20141;-76
2021/10/09 00:36:26;;;;;;;48.05;32.22;;;11.00;99.90;;;;;;4976023;28;20050;-78
2021/10/09 00:38:54;;;;;;;46.45;31.35;;;10.90;99.90;;;;;;4975627;28;20054;-77
2021/10/09 00:41:21;;;;;;;45.92;32.45;;;10.90;99.90;;;;;;4976206;28;20050;-77
2021/10/09 00:43:47;;;;;;;41.85;31.50;;;10.80;99.90;;;;;;4976183;28;20053;-77
2021/10/09 00:46:15;;;;;;;47.05;33.45;;;10.80;99.90;;;;;;4976070;28;20057;-78
2021/10/09 00:48:42;;;;;;;44.53;32.60;;;10.80;99.90;;;;;;4976412;28;20118;-78
2021/10/09 00:51:10;;;;;;;42.47;32.45;;;10.80;99.90;;;;;;4975805;28;20047;-77
2021/10/09 00:53:39;;;;;;;47.28;31.83;;;10.70;99.90;;;;;;4975845;28;20074;-77
2021/10/09 00:56:07;;;;;;;43.50;32.22;;;10.70;99.90;;;;;;4975248;28;20137;-76
2021/10/09 00:58:37;;;;;;;44.55;32.33;;;10.70;99.90;;;;;;4975616;28;20418;-77
2021/10/09 01:01:04;;;;;;;45.17;31.83;;;10.70;99.90;;;;;;4975674;28;20133;-76
2021/10/09 01:03:32;;;;;;;46.25;32.35;;;10.70;99.90;;;;;;4976540;28;20195;-77
2021/10/09 01:05:59;;;;;;;46.38;32.50;;;10.70;99.90;;;;;;4975692;28;20057;-76
2021/10/09 01:08:27;;;;;;;45.50;32.42;;;10.70;99.90;;;;;;4975486;28;20146;-77
2021/10/09 01:10:54;;;;;;;47.03;33.67;;;10.60;99.90;;;;;;4975482;28;20050;-77
2021/10/09 01:13:21;;;;;;;50.47;34.33;;;10.60;99.90;;;;;;4975496;28;20404;-77
2021/10/09 01:15:48;;;;;;;49.28;35.35;;;10.40;99.90;;;;;;4975447;28;20055;-77
2021/10/09 01:18:17;;;;;;;51.13;35.45;;;10.40;99.90;;;;;;4975613;28;20534;-77
2021/10/09 01:20:54;;;;;;;45.72;33.03;;;10.30;99.90;;;;;;4975347;28;20051;-77
2021/10/09 01:23:22;;;;;;;51.50;34.42;;;10.30;99.90;;;;;;4975540;28;20051;-76
2021/10/09 01:25:50;;;;;;;50.40;34.20;;;10.30;99.90;;;;;;4975501;28;20077;-76
2021/10/09 01:28:17;;;;;;;46.20;31.45;;;10.20;99.90;;;;;;4975722;28;20463;-76
2021/10/09 01:30:44;;;;;;;50.13;33.70;;;10.20;99.90;;;;;;4975383;28;20145;-76
2021/10/09 01:33:11;;;;;;;48.55;32.78;;;10.20;99.90;;;;;;4975430;28;20057;-75
2021/10/09 01:35:50;;;;;;;47.33;31.98;;;10.20;99.90;;;;;;4975759;28;20051;-76
2021/10/09 01:38:19;;;;;;;47.63;32.75;;;10.10;99.90;;;;;;4975353;28;20331;-75
2021/10/09 01:40:46;;;;;;;47.30;33.67;;;10.10;99.90;;;;;;4975395;28;20051;-76
2021/10/09 01:43:14;;;;;;;48.28;33.00;;;10.10;99.90;;;;;;4975186;28;20146;-77
2021/10/09 01:45:43;;;;;;;46.15;32.50;;;10.10;99.90;;;;;;4974126;28;20508;-76
2021/10/09 01:48:10;;;;;;;49.03;33.20;;;10.10;99.90;;;;;;4975402;28;20142;-77
2021/10/09 01:50:38;;;;;;;48.00;33.65;;;10.10;99.90;;;;;;4974953;28;20061;-77
2021/10/09 01:53:07;;;;;;;54.10;33.97;;;10.10;99.90;;;;;;4975130;28;20050;-76
2021/10/09 01:55:35;;;;;;;49.85;32.75;;;10.10;99.90;;;;;;4974954;28;20065;-77
2021/10/09 01:58:03;;;;;;;51.45;34.15;;;10.00;99.90;;;;;;4975372;28;20072;-77
2021/10/09 02:00:29;;;;;;;54.38;34.70;;;9.90;99.90;;;;;;4975384;28;20663;-77
2021/10/09 02:03:01;;;;;;;54.22;34.10;;;9.80;99.90;;;;;;4975075;28;20051;-76
2021/10/09 02:05:28;;;;;;;49.15;33.03;;;9.80;99.90;;;;;;4974868;28;20097;-77
2021/10/09 02:07:56;;;;;;;53.63;33.47;;;9.80;99.90;;;;;;4974688;28;20082;-76
2021/10/09 02:10:22;;;;;;;49.92;32.97;;;9.80;99.90;;;;;;4974446;28;20439;-76
2021/10/09 02:12:51;;;;;;;47.35;32.10;;;9.80;99.90;;;;;;4974492;28;20082;-76
2021/10/09 02:15:20;;;;;;;47.25;32.28;;;9.80;99.90;;;;;;4975574;28;20051;-76
2021/10/09 02:18:05;;;;;;;51.20;33.58;;;9.80;99.90;;;;;;4974391;28;20062;-77
2021/10/09 02:26:02;;;;;;;47.20;33.75;;;9.70;99.90;;;;;;4974235;28;20057;-76
2021/10/09 02:28:31;;;;;;;47.33;32.95;;;9.60;99.90;;;;;;4974307;28;20054;-75
2021/10/09 02:30:58;;;;;;;50.72;34.17;;;9.50;99.90;;;;;;4974383;28;20082;-76
2021/10/09 02:33:24;;;;;;;48.35;33.35;;;9.50;99.90;;;;;;4974450;28;20153;-76
2021/10/09 02:35:51;;;;;;;51.45;34.15;;;9.50;99.90;;;;;;4974294;28;20570;-76
2021/10/09 02:38:18;;;;;;;48.42;33.53;;;9.50;99.90;;;;;;4974313;28;20070;-76
2021/10/09 02:40:46;;;;;;;51.03;33.55;;;9.50;99.90;;;;;;4973935;28;20042;-76
2021/10/09 02:43:15;;;;;;;47.70;31.65;;;9.50;99.90;;;;;;4972705;28;20061;-76
2021/10/09 02:45:43;;;;;;;51.08;33.13;;;9.50;99.90;;;;;;4973314;28;20141;-76
2021/10/09 02:48:11;;;;;;;49.90;32.33;;;9.50;99.90;;;;;;4973978;28;20055;-77
2021/10/09 02:50:38;;;;;;;44.55;31.13;;;9.50;99.90;;;;;;4973696;28;20050;-76
2021/10/09 02:53:05;;;;;;;42.28;29.88;;;9.50;99.90;;;;;;4973698;28;20054;-76
2021/10/09 02:55:32;;;;;;;45.17;31.27;;;9.40;99.90;;;;;;4973366;28;20085;-76
2021/10/09 02:57:59;;;;;;;39.85;28.73;;;9.40;99.90;;;;;;4967110;28;20130;-77
2021/10/09 03:00:26;;;;;;;43.47;29.40;;;9.30;99.90;;;;;;4939870;28;107469;-76
2021/10/09 03:02:54;;;;;;;40.53;28.88;;;9.20;99.90;;;;;;4933970;29;20051;-76
2021/10/09 03:05:21;;;;;;;43.08;30.50;;;9.20;99.90;;;;;;4933869;29;20491;-75
2021/10/09 03:07:49;;;;;;;40.72;29.15;;;9.20;99.90;;;;;;4936226;29;20437;-76
2021/10/09 03:10:16;;;;;;;39.90;28.55;;;9.20;99.90;;;;;;4935678;29;20060;-75
2021/10/09 03:12:43;;;;;;;41.25;29.52;;;9.10;99.90;;;;;;4934687;29;20058;-75
2021/10/09 03:15:12;;;;;;;50.92;32.13;;;9.10;99.90;;;;;;4934096;29;20055;-75
2021/10/09 03:17:40;;;;;;;43.80;30.05;;;9.10;99.90;;;;;;4946838;28;20519;-76
2021/10/09 03:20:10;;;;;;;43.78;30.48;;;9.10;99.90;;;;;;4953479;28;20138;-76
2021/10/09 03:22:38;;;;;;;51.15;33.30;;;9.00;99.90;;;;;;4953288;28;20062;-76
2021/10/09 03:25:06;;;;;;;47.20;32.08;;;9.00;99.90;;;;;;4950600;29;20078;-76
2021/10/09 03:27:33;;;;;;;46.95;31.95;;;9.00;99.90;;;;;;4952515;28;20055;-75
2021/10/09 03:29:59;;;;;;;46.88;31.77;;;9.00;99.90;;;;;;4953640;28;20061;-76
2021/10/09 03:32:26;;;;;;;45.83;31.35;;;9.00;99.90;;;;;;4953463;29;20065;-76
2021/10/09 03:34:53;;;;;;;42.88;30.88;;;9.00;99.90;;;;;;4953243;28;20055;-76
2021/10/09 03:37:21;;;;;;;44.35;29.45;;;9.00;99.90;;;;;;4953334;28;20488;-76
2021/10/09 03:39:50;;;;;;;43.55;30.13;;;8.90;99.90;;;;;;4953208;28;20125;-76
2021/10/09 03:42:20;;;;;;;44.85;31.08;;;8.90;99.90;;;;;;4953724;28;20044;-77
2021/10/09 03:44:51;;;;;;;44.33;29.65;;;8.90;99.90;;;;;;4953680;29;20066;-76
2021/10/09 03:47:22;;;;;;;45.30;30.75;;;8.90;99.90;;;;;;4953663;28;20047;-76
2021/10/09 03:49:52;;;;;;;42.13;29.55;;;8.80;99.90;;;;;;4953407;29;20055;-75
2021/10/09 03:52:38;;;;;;;44.88;30.13;;;8.80;99.90;;;;;;4954214;28;20082;-76
2021/10/09 03:55:07;;;;;;;39.75;27.67;;;8.70;99.90;;;;;;4953562;28;20047;-77
2021/10/09 03:57:34;;;;;;;38.90;27.10;;;8.70;99.90;;;;;;4953039;29;20090;-74
2021/10/09 04:00:02;;;;;;;38.63;28.27;;;8.60;99.90;;;;;;4953224;28;20095;-76
2021/10/09 04:02:29;;;;;;;39.95;29.17;;;8.60;99.90;;;;;;4953156;28;20055;-76
2021/10/09 04:04:56;;;;;;;42.88;30.23;;;8.50;99.90;;;;;;4953313;29;20138;-76
2021/10/09 04:07:24;;;;;;;43.67;30.05;;;8.60;99.90;;;;;;4953226;28;20483;-76
2021/10/09 04:09:51;;;;;;;42.22;29.92;;;8.60;99.90;;;;;;4953299;28;20065;-76
2021/10/09 04:12:18;;;;;;;41.53;29.55;;;8.60;99.90;;;;;;4961705;28;20047;-76
2021/10/09 04:14:45;;;;;;;42.88;31.15;;;8.60;99.90;;;;;;4974682;28;20587;-75
2021/10/09 04:17:12;;;;;;;46.13;31.05;;;8.60;99.90;;;;;;4975600;28;20057;-77
2021/10/09 04:19:39;;;;;;;44.70;30.63;;;8.50;99.90;;;;;;4975438;28;20495;-77
2021/10/09 04:22:06;;;;;;;46.20;32.20;;;8.50;99.90;;;;;;4972131;28;20043;-76
2021/10/09 04:24:34;;;;;;;46.72;31.65;;;8.50;99.90;;;;;;4956486;29;20061;-75
2021/10/09 04:27:01;;;;;;;46.55;31.55;;;8.50;99.90;;;;;;4956507;29;20061;-77
2021/10/09 04:29:28;;;;;;;45.85;31.13;;;8.50;99.90;;;;;;4955572;29;20051;-75
2021/10/09 04:31:56;;;;;;;47.38;33.03;;;8.50;99.90;;;;;;4956574;29;20342;-76
2021/10/09 04:34:23;;;;;;;48.00;32.63;;;8.50;99.90;;;;;;4956259;29;20057;-76
2021/10/09 04:36:50;;;;;;;53.13;32.58;;;8.50;99.90;;;;;;4956020;29;20085;-77
2021/10/09 04:39:17;;;;;;;49.28;34.08;;;8.40;99.90;;;;;;4955285;29;20051;-75
2021/10/09 04:41:45;;;;;;;51.63;33.95;;;8.40;99.90;;;;;;4954926;28;20084;-76
2021/10/09 04:44:12;;;;;;;51.72;33.78;;;8.40;99.90;;;;;;4955889;29;20054;-76
2021/10/09 04:46:39;;;;;;;49.50;33.58;;;8.40;99.90;;;;;;4956222;28;20061;-76
2021/10/09 04:49:05;;;;;;;46.17;33.35;;;8.40;99.90;;;;;;4956344;29;20138;-75
2021/10/09 04:51:32;;;;;;;53.80;33.72;;;8.30;99.90;;;;;;4956563;29;20047;-78
2021/10/09 04:54:00;;;;;;;55.88;34.42;;;8.30;99.90;;;;;;4956472;28;20059;-77
2021/10/09 04:56:27;;;;;;;55.58;36.20;;;8.20;99.90;;;;;;4954708;28;20522;-76
2021/10/09 04:58:55;;;;;;;56.78;36.60;;;8.20;99.90;;;;;;4954381;29;20134;-77
2021/10/09 05:01:22;;;;;;;66.88;40.28;;;8.20;99.90;;;;;;4955384;28;20572;-77
2021/10/09 05:03:49;;;;;;;69.18;40.70;;;8.20;99.90;;;;;;4955681;28;20055;-77
2021/10/09 05:06:15;;;;;;;74.45;43.55;;;8.10;99.90;;;;;;4955458;28;20134;-76
2021/10/09 05:08:42;;;;;;;72.50;43.20;;;8.10;99.90;;;;;;4956148;29;20138;-77
2021/10/09 05:11:10;;;;;;;77.40;45.13;;;8.10;99.90;;;;;;4955355;28;20053;-77
2021/10/09 05:13:37;;;;;;;78.55;45.13;;;8.10;99.90;;;;;;4955489;28;20423;-77
2021/10/09 05:16:05;;;;;;;76.60;43.38;;;8.10;99.90;;;;;;4955056;28;20460;-76
2021/10/09 05:18:32;;;;;;;75.47;44.35;;;8.10;99.90;;;;;;4955361;29;20057;-77
2021/10/09 05:20:59;;;;;;;79.57;44.78;;;8.10;99.90;;;;;;4954882;28;20058;-77
2021/10/09 05:23:27;;;;;;;78.68;46.92;;;8.00;99.90;;;;;;4955173;28;20055;-76
2021/10/09 05:25:54;;;;;;;72.45;41.35;;;8.00;99.90;;;;;;4954262;28;20137;-76
2021/10/09 05:28:24;;;;;;;68.07;40.83;;;8.10;99.90;;;;;;4955335;29;20047;-76
2021/10/09 05:30:55;;;;;;;69.20;40.85;;;8.00;99.90;;;;;;4955170;28;20055;-76
2021/10/09 05:33:36;;;;;;;64.95;39.90;;;8.10;99.90;;;;;;4955533;29;20055;-76
2021/10/09 05:36:03;;;;;;;66.35;39.28;;;8.00;99.90;;;;;;4955205;28;20446;-77
2021/10/09 05:38:30;;;;;;;60.83;39.03;;;8.00;99.90;;;;;;4955462;28;20051;-77
2021/10/09 05:40:57;;;;;;;64.70;39.22;;;8.00;99.90;;;;;;4955299;28;20098;-77
2021/10/09 05:43:25;;;;;;;67.13;39.58;;;8.00;99.90;;;;;;4955214;28;20051;-76
2021/10/09 05:45:52;;;;;;;64.80;38.65;;;8.00;99.90;;;;;;4954181;28;20107;-75
2021/10/09 05:48:19;;;;;;;59.58;38.67;;;8.00;99.90;;;;;;4955005;28;20143;-76
2021/10/09 05:50:52;;;;;;;58.72;36.10;;;8.00;99.90;;;;;;4955648;28;20094;-77
2021/10/09 05:53:40;;;;;;;68.53;40.20;;;8.00;99.90;;;;;;4955650;28;20062;-77
2021/10/09 05:56:11;;;;;;;80.68;43.83;;;8.00;99.90;;;;;;4955501;29;20051;-78
2021/10/09 05:58:46;;;;;;;100.28;44.35;;;8.00;99.90;;;;;;4955621;28;20087;-77
2021/10/09 06:45:58;;;;;;;50.70;30.50;;;8.80;99.90;;;;;;4952281;29;20047;-76
2021/10/09 06:48:54;;;;;;;45.42;28.98;;;9.00;99.90;;;;;;4954529;29;20427;-76
2021/10/09 06:59:33;;;;;;;63.58;22.00;;;9.30;99.90;;;;;;4958132;29;20129;-77
2021/10/09 07:02:00;;;;;;;47.15;21.88;;;9.40;99.90;;;;;;4957670;29;20058;-77
2021/10/09 07:04:27;;;;;;;36.22;21.45;;;9.50;99.90;;;;;;4956074;29;20563;-77
2021/10/09 07:06:55;;;;;;;26.15;19.65;;;9.80;99.90;;;;;;4956016;29;20520;-78
2021/10/09 07:09:22;;;;;;;25.13;19.33;;;10.00;99.90;;;;;;4955867;28;20102;-76
2021/10/09 07:11:50;;;;;;;23.70;18.58;;;10.30;99.90;;;;;;4957329;28;20119;-75
2021/10/09 07:14:17;;;;;;;26.38;20.30;;;10.60;99.90;;;;;;4956733;29;20050;-78
2021/10/09 07:16:44;;;;;;;31.63;23.70;;;11.00;99.90;;;;;;4954104;28;20082;-76
2021/10/09 07:19:11;;;;;;;29.67;22.58;;;11.30;99.90;;;;;;4956154;28;20082;-77
2021/10/09 07:21:37;;;;;;;29.92;21.85;;;11.80;99.90;;;;;;4957371;29;20051;-77
2021/10/09 07:24:05;;;;;;;29.05;22.90;;;12.40;99.90;;;;;;4966305;29;20123;-76
2021/10/09 07:26:31;;;;;;;30.67;22.85;;;12.90;99.90;;;;;;4956967;28;20061;-79
2021/10/09 07:29:00;;;;;;;33.58;23.35;;;13.50;99.90;;;;;;4954501;29;20062;-77
2021/10/09 07:31:27;;;;;;;33.10;25.02;;;13.90;99.90;;;;;;4955627;29;20071;-77
2021/10/09 07:33:53;;;;;;;31.63;25.52;;;14.20;99.90;;;;;;4952368;28;20126;-76
2021/10/09 07:36:20;;;;;;;29.40;24.23;;;14.30;99.90;;;;;;4955798;28;20102;-77
2021/10/09 07:38:47;;;;;;;29.88;23.27;;;14.60;99.90;;;;;;4954985;28;20047;-76
2021/10/09 07:41:14;;;;;;;31.35;25.52;;;14.50;99.90;;;;;;4951581;28;20172;-75
2021/10/09 07:43:41;;;;;;;33.55;25.33;;;14.40;99.90;;;;;;4957124;28;20130;-76
2021/10/09 07:46:09;;;;;;;34.25;25.75;;;14.60;99.90;;;;;;4957018;28;20086;-76
2021/10/09 07:48:36;;;;;;;37.63;28.75;;;14.70;99.90;;;;;;4964881;28;20051;-75
2021/10/09 07:51:05;;;;;;;40.40;29.52;;;14.70;99.90;;;;;;4965969;28;20129;-77
2021/10/09 07:53:31;;;;;;;41.50;30.23;;;14.90;99.90;;;;;;4963612;29;20140;-78
2021/10/09 07:55:58;;;;;;;41.17;31.15;;;15.00;99.90;;;;;;4970282;29;20189;-77
2021/10/09 07:58:25;;;;;;;40.28;31.52;;;14.80;99.90;;;;;;4965243;29;20110;-81
2021/10/09 08:00:52;;;;;;;42.30;30.50;;;15.00;99.90;;;;;;4966718;29;20059;-77
2021/10/09 08:03:24;;;;;;;39.83;29.52;;;15.20;99.90;;;;;;4970585;29;20079;-75
2021/10/09 08:05:52;;;;;;;43.03;30.90;;;15.50;99.90;;;;;;4967161;28;20055;-77
2021/10/09 08:08:19;;;;;;;38.97;30.45;;;15.50;99.90;;;;;;4968215;29;20055;-77
2021/10/09 08:10:47;;;;;;;41.85;29.65;;;15.60;99.90;;;;;;4969726;29;20082;-75
2021/10/09 08:13:14;;;;;;;42.17;29.70;;;15.60;99.90;;;;;;4966195;28;20051;-75
2021/10/09 08:15:41;;;;;;;37.76;28.44;;;15.50;99.90;;;;;;4931697;28;1104265;-77
2021/10/09 08:18:08;;;;;;;39.88;29.67;;;15.30;99.90;;;;;;4972562;29;20431;-77
2021/10/09 08:20:37;;;;;;;39.38;30.88;;;15.20;99.90;;;;;;4974284;28;20075;-79
2021/10/09 08:23:07;;;;;;;40.60;30.10;;;15.00;99.90;;;;;;4968474;29;20047;-77
2021/10/09 08:36:53;;;;;;;41.53;30.20;;;16.00;99.90;;;;;;4976391;29;20087;-78
2021/10/09 08:39:21;;;;;;;36.15;28.02;;;16.20;99.90;;;;;;4962587;29;20059;-79
2021/10/09 08:41:48;;;;;;;38.03;27.85;;;16.30;99.90;;;;;;4961304;29;20311;-76
2021/10/09 08:44:15;;;;;;;33.50;26.27;;;15.90;99.90;;;;;;4965252;28;20110;-80
2021/10/09 08:46:42;;;;;;;32.70;25.75;;;15.60;99.90;;;;;;4960955;29;20146;-78
2021/10/09 08:49:09;;;;;;;35.65;25.85;;;15.30;99.90;;;;;;4959166;29;20134;-78
2021/10/09 08:51:37;;;;;;;30.98;24.15;;;15.20;99.90;;;;;;4957483;29;20058;-77
2021/10/09 08:54:11;;;;;;;35.20;24.35;;;14.90;99.90;;;;;;4957290;29;20431;-76
2021/10/09 08:56:40;;;;;;;36.10;23.65;;;14.70;99.90;;;;;;4956649;29;20134;-77
2021/10/09 08:59:10;;;;;;;32.63;23.77;;;14.60;99.90;;;;;;4956793;28;20055;-79
2021/10/09 09:01:50;;;;;;;31.27;23.30;;;14.50;99.90;;;;;;4955453;28;20098;-79
2021/10/09 09:35:26;;;;;;;30.38;20.42;;;13.90;99.90;;;;;;4878930;29;20114;-80
2021/10/09 09:40:43;;;;;;;33.08;20.58;;;14.00;99.90;;;;;;4926392;29;20303;-80
2021/10/09 09:43:12;;;;;;;29.43;19.63;;;14.10;99.90;;;;;;4957519;29;20126;-79
2021/10/09 09:45:40;;;;;;;26.73;19.63;;;14.10;99.90;;;;;;4956536;29;20083;-78
2021/10/09 09:48:08;;;;;;;28.27;19.85;;;14.20;99.90;;;;;;4956632;29;20055;-79
2021/10/09 09:50:36;;;;;;;28.13;20.20;;;14.20;99.90;;;;;;4956721;28;20129;-79
2021/10/09 09:53:06;;;;;;;27.48;19.50;;;14.30;99.90;;;;;;4956765;29;20066;-78
2021/10/09 09:55:33;;;;;;;27.20;19.35;;;14.40;99.90;;;;;;4956915;28;20057;-79
2021/10/09 09:58:02;;;;;;;29.05;18.83;;;14.50;99.90;;;;;;4958662;28;20478;-77
2021/10/09 10:00:35;;;;;;;29.02;20.13;;;14.70;99.90;;;;;;4958438;29;20538;-79
2021/10/09 10:03:03;;;;;;;29.90;21.38;;;14.80;99.90;;;;;;4959472;29;20051;-78
2021/10/09 10:05:31;;;;;;;27.95;19.00;;;14.90;99.90;;;;;;4957589;29;20053;-78
2021/10/09 10:07:58;;;;;;;25.70;20.00;;;15.00;99.90;;;;;;4961096;28;20123;-78
2021/10/09 10:10:25;;;;;;;25.23;19.35;;;15.10;99.90;;;;;;4956268;28;20098;-82
2021/10/09 10:12:56;;;;;;;25.77;19.05;;;15.10;99.90;;;;;;4956144;28;20452;-79
2021/10/09 10:15:28;;;;;;;26.98;20.30;;;15.10;99.90;;;;;;4956335;29;20055;-79
2021/10/09 10:17:56;;;;;;;32.40;20.05;;;15.10;99.90;;;;;;4957093;29;20066;-80
2021/10/09 10:20:24;;;;;;;27.75;18.83;;;15.20;99.90;;;;;;4959340;29;20051;-79
2021/10/09 10:23:02;;;;;;;26.20;19.35;;;15.20;99.90;;;;;;4956259;29;20418;-79
2021/10/09 10:25:38;;;;;;;24.55;19.13;;;15.20;99.90;;;;;;4956328;29;20134;-78
2021/10/09 10:28:07;;;;;;;25.27;18.30;;;15.30;99.90;;;;;;4956104;29;20134;-78
2021/10/09 10:30:42;;;;;;;25.75;17.38;;;15.50;99.90;;;;;;4956485;29;20550;-78
2021/10/09 10:33:47;;;;;;;24.88;17.55;;;15.70;99.90;;;;;;4955917;29;20055;-79
2021/10/09 10:36:38;;;;;;;26.15;17.88;;;15.80;99.90;;;;;;4955377;29;20134;-79
2021/10/09 10:39:06;;;;;;;24.58;17.27;;;15.80;99.90;;;;;;4956445;29;20062;-79
2021/10/09 10:41:53;;;;;;;26.70;19.35;;;15.80;99.90;;;;;;4956222;28;20055;-79
2021/10/09 10:44:45;;;;;;;27.42;17.58;;;15.70;99.90;;;;;;4956045;29;20059;-79
2021/10/09 10:47:45;;;;;;;25.77;16.88;;;15.70;99.90;;;;;;4955493;29;20047;-78
2021/10/09 10:57:17;;;;;;;24.13;17.33;;;15.90;99.90;;;;;;4955346;29;20043;-79
2021/10/09 10:59:46;;;;;;;30.55;18.20;;;16.00;99.90;;;;;;4955394;29;20074;-78
2021/10/09 11:02:14;;;;;;;24.42;17.85;;;16.10;99.90;;;;;;4955116;29;20141;-78
2021/10/09 11:04:44;;;;;;;27.58;18.67;;;16.10;99.90;;;;;;4955784;29;20591;-81
2021/10/09 11:07:11;;;;;;;26.80;17.25;;;16.20;99.90;;;;;;4955343;29;20234;-78
2021/10/09 11:09:40;;;;;;;26.80;17.30;;;16.20;99.90;;;;;;4955707;29;20138;-80
2021/10/09 11:12:22;;;;;;;25.58;17.02;;;16.30;99.90;;;;;;4955167;28;20133;-78
2021/10/09 11:14:50;;;;;;;28.58;17.65;;;16.30;99.90;;;;;;4954403;29;20051;-79
2021/10/09 11:17:17;;;;;;;25.60;18.10;;;16.40;99.90;;;;;;4953917;29;20057;-78
2021/10/09 11:19:46;;;;;;;24.25;17.92;;;16.50;99.90;;;;;;4954260;29;20487;-78
2021/10/09 11:22:14;;;;;;;27.60;18.45;;;16.50;99.90;;;;;;4954791;29;20129;-79
2021/10/09 11:24:46;;;;;;;26.27;17.55;;;16.50;99.90;;;;;;4953981;28;20439;-79
2021/10/09 11:27:15;;;;;;;27.25;18.48;;;16.50;99.90;;;;;;4954822;28;20063;-78
2021/10/09 11:29:43;;;;;;;26.63;18.15;;;16.70;99.90;;;;;;4954763;29;20430;-79
2021/10/09 11:32:11;;;;;;;25.67;19.08;;;16.80;99.90;;;;;;4954218;29;20058;-79
2021/10/09 11:34:51;;;;;;;25.20;18.25;;;16.80;99.90;;;;;;4955736;29;20481;-78
2021/10/09 11:37:18;;;;;;;25.30;17.27;;;16.80;99.90;;;;;;4955464;29;20106;-77
2021/10/09 11:39:49;;;;;;;27.60;17.85;;;16.80;99.90;;;;;;4955862;28;20478;-82
2021/10/09 12:08:14;;;;;;;18.85;13.18;;;17.00;99.90;;;;;;5108879;27;1259445;-80
2021/10/09 12:10:41;;;;;;;20.40;13.70;;;17.10;99.90;;;;;;5110723;28;20075;-78
2021/10/09 12:13:08;;;;;;;23.48;14.57;;;17.20;99.90;;;;;;5110882;28;20048;-78
2021/10/09 12:15:36;;;;;;;21.35;13.82;;;17.40;99.90;;;;;;5110735;28;20044;-78
2021/10/09 12:18:03;;;;;;;20.92;13.50;;;17.50;99.90;;;;;;5111833;28;20131;-77
2021/10/09 12:20:31;;;;;;;20.50;14.02;;;17.50;99.90;;;;;;5127300;22;20149;-78
2021/10/09 12:22:58;;;;;;;19.08;13.45;;;17.50;99.90;;;;;;5085360;28;20139;-78
2021/10/09 12:25:27;;;;;;;18.95;13.77;;;17.60;99.90;;;;;;5093818;28;20094;-78
2021/10/09 12:27:55;;;;;;;15.43;12.88;;;17.80;99.90;;;;;;5092684;28;20095;-79
2021/10/09 12:30:33;;;;;;;21.65;15.18;;;17.80;99.90;;;;;;5093645;28;20127;-78
2021/10/09 12:33:01;;;;;;;19.95;13.50;;;17.90;99.90;;;;;;5093416;28;20464;-78
2021/10/09 12:35:30;;;;;;;19.20;13.40;;;18.00;99.90;;;;;;5093286;28;20052;-78
2021/10/09 12:37:58;;;;;;;17.00;12.75;;;18.00;99.90;;;;;;5093251;28;20413;-78
2021/10/09 12:40:28;;;;;;;18.70;12.70;;;17.90;99.90;;;;;;5093228;28;20512;-78
2021/10/09 12:42:57;;;;;;;17.27;12.73;;;17.90;99.90;;;;;;5089894;28;20114;-77
2021/10/09 12:45:26;;;;;;;20.38;13.10;;;18.00;99.90;;;;;;5089160;28;20109;-77
2021/10/09 12:47:54;;;;;;;18.52;12.38;;;18.00;99.90;;;;;;5088095;28;20040;-77
2021/10/09 12:50:21;;;;;;;18.10;12.52;;;18.10;99.90;;;;;;5088851;28;20457;-77
2021/10/09 12:52:47;;;;;;;15.73;13.07;;;18.10;99.90;;;;;;5088372;28;20144;-77
2021/10/09 12:55:14;;;;;;;18.85;12.43;;;18.10;99.90;;;;;;5088955;28;20108;-77
2021/10/09 12:57:51;;;;;;;14.85;12.48;;;18.10;99.90;;;;;;5087764;28;20496;-77
2021/10/09 13:00:18;;;;;;;17.20;13.25;;;18.00;99.90;;;;;;5089763;28;20048;-78
2021/10/09 13:02:45;;;;;;;16.23;12.77;;;18.00;99.90;;;;;;5089690;28;20143;-77
2021/10/09 13:05:12;;;;;;;21.50;12.95;;;18.00;99.90;;;;;;5089397;28;20303;-77
2021/10/09 13:07:39;;;;;;;18.20;13.23;;;18.00;99.90;;;;;;5087863;28;20496;-77
2021/10/09 13:10:07;;;;;;;15.00;11.43;;;18.00;99.90;;;;;;5087809;28;20703;-77
2021/10/09 13:12:34;;;;;;;15.68;11.43;;;18.00;99.90;;;;;;5088267;28;20469;-77
2021/10/09 13:15:03;;;;;;;18.40;12.52;;;18.10;99.90;;;;;;5087875;28;20204;-77
2021/10/09 13:17:30;;;;;;;18.38;12.50;;;18.20;99.90;;;;;;5084915;28;20432;-77
2021/10/09 13:19:57;;;;;;;18.90;12.18;;;18.30;99.90;;;;;;5074013;28;20364;-77
2021/10/09 13:22:24;;;;;;;18.85;12.15;;;18.20;99.90;;;;;;5073886;28;20135;-77
2021/10/09 13:24:51;;;;;;;15.27;12.02;;;18.20;99.90;;;;;;5074112;28;20056;-77
2021/10/09 13:27:17;;;;;;;18.73;12.73;;;18.20;99.90;;;;;;5073882;28;20136;-77
2021/10/09 13:29:44;;;;;;;16.98;12.27;;;18.20;99.90;;;;;;5074054;28;20102;-78
2021/10/09 13:32:12;;;;;;;19.33;12.15;;;18.20;99.90;;;;;;5073838;28;20063;-77
2021/10/09 13:34:39;;;;;;;17.40;12.35;;;18.20;99.90;;;;;;5073937;28;20055;-77
2021/10/09 13:37:06;;;;;;;16.23;12.05;;;18.30;99.90;;;;;;5073303;28;20439;-77
2021/10/09 13:39:33;;;;;;;22.88;13.98;;;18.30;99.90;;;;;;5074067;28;20420;-77
2021/10/09 13:42:00;;;;;;;16.88;13.15;;;18.30;99.90;;;;;;5073857;28;20461;-77
2021/10/09 13:44:27;;;;;;;18.00;13.88;;;18.40;99.90;;;;;;5073726;28;20131;-77
2021/10/09 13:46:54;;;;;;;19.35;13.45;;;18.40;99.90;;;;;;5073478;28;20448;-77
2021/10/09 13:49:23;;;;;;;19.13;14.18;;;18.40;99.90;;;;;;5073483;28;20056;-77
2021/10/09 13:51:49;;;;;;;19.75;14.40;;;18.30;99.90;;;;;;5073784;28;20079;-77
2021/10/09 13:54:16;;;;;;;19.60;13.57;;;18.40;99.90;;;;;;5073431;28;20507;-77
2021/10/09 13:56:43;;;;;;;20.02;13.68;;;18.40;99.90;;;;;;5074217;28;20044;-77
2021/10/09 13:59:10;;;;;;;19.30;13.55;;;18.40;99.90;;;;;;5073908;28;20092;-77
2021/10/09 14:01:37;;;;;;;24.63;14.15;;;18.40;99.90;;;;;;5073480;28;20044;-77
2021/10/09 14:04:04;;;;;;;19.35;12.68;;;18.50;99.90;;;;;;5073697;28;20420;-77
2021/10/09 14:06:32;;;;;;;17.58;13.00;;;18.40;99.90;;;;;;5073805;28;20453;-76
2021/10/09 14:08:59;;;;;;;19.30;12.80;;;18.30;99.90;;;;;;5073592;28;20083;-77
2021/10/09 14:11:26;;;;;;;19.83;12.77;;;18.30;99.90;;;;;;5073313;28;20052;-76
2021/10/09 14:13:53;;;;;;;21.20;11.68;;;18.40;99.90;;;;;;5073736;28;20052;-77
2021/10/09 14:16:20;;;;;;;23.15;12.55;;;18.50;99.90;;;;;;5073240;28;20088;-77
2021/10/09 14:18:47;;;;;;;27.77;14.30;;;18.60;99.90;;;;;;5073635;28;20509;-77
2021/10/09 14:21:13;;;;;;;15.68;10.82;;;18.60;99.90;;;;;;5073061;28;20427;-77
2021/10/09 14:23:43;;;;;;;16.83;10.88;;;18.60;99.90;;;;;;5073746;28;20431;-77
2021/10/09 14:26:10;;;;;;;14.63;10.27;;;18.60;99.90;;;;;;5074243;28;20115;-78
2021/10/09 14:28:38;;;;;;;16.60;11.38;;;18.60;99.90;;;;;;5073341;28;20408;-76
2021/10/09 14:31:04;;;;;;;15.88;10.93;;;18.60;99.90;;;;;;5072054;28;20496;-77
2021/10/09 14:33:31;;;;;;;14.05;10.73;;;18.60;99.90;;;;;;5072813;28;20496;-76
2021/10/09 14:35:59;;;;;;;15.98;10.85;;;18.60;99.90;;;;;;5072728;28;20048;-77
2021/10/09 14:38:25;;;;;;;16.55;10.50;;;18.60;99.90;;;;;;5072734;28;20048;-77
2021/10/09 14:40:54;;;;;;;13.10;10.55;;;18.60;99.90;;;;;;5073244;28;20461;-76
2021/10/09 14:43:21;;;;;;;12.23;8.82;;;18.50;99.90;;;;;;5072908;28;20044;-77
2021/10/09 14:45:50;;;;;;;14.32;9.35;;;18.60;99.90;;;;;;5072270;28;20087;-76
2021/10/09 14:48:19;;;;;;;17.83;9.30;;;18.60;99.90;;;;;;5072399;28;20040;-77
2021/10/09 14:53:55;;;;;;;12.77;8.93;;;18.50;99.90;;;;;;4991247;28;20038;-77
2021/10/09 15:18:23;;;;;;;13.45;9.00;;;18.40;99.90;;;;;;5052909;28;20056;-77
2021/10/09 15:20:50;;;;;;;12.48;8.68;;;18.40;99.90;;;;;;5052182;28;20117;-77